Time;durP1;ratioP1;P1;durP2;ratioP2;P2;SDS_P1;SDS_P2;PMS_P1;PMS_P2;Temp;Humidity;BMP_temperature;BMP_pressure;BME280_temperature;BME280_humidity;BME280_pressure;Samples;Min_cycle;Max_cycle;Signal;HPM_P1;HPM_P2
2023/04/11 00:01:31;;;;;;;;;;;;;;;10.97;100.00;100660.09;5075266;28;19924;-51
2023/04/11 00:03:57;;;;;;;;;;;;;;;10.96;100.00;100663.81;5075170;28;19999;-54
2023/04/11 00:06:24;;;;;;;;;;;;;;;11.83;100.00;100649.66;5075061;28;19916;-55
2023/04/11 00:08:50;;;;;;;;;;;;;;;11.63;100.00;100652.31;5074779;28;19928;-53
2023/04/11 00:11:16;;;;;;;;;;;;;;;11.72;100.00;100653.78;5074638;28;19924;-53
2023/04/11 00:13:41;;;;;;;;;;;;;;;11.95;100.00;100655.19;5074397;28;19917;-52
2023/04/11 00:16:08;;;;;;;;;;;;;;;11.97;100.00;100652.28;5075279;28;19916;-54
2023/04/11 00:18:35;;;;;;;;;;;;;;;11.45;100.00;100655.63;5075560;28;19925;-55
2023/04/11 00:21:05;;;;;;;;;;;;;;;11.40;100.00;100650.88;5074644;28;19989;-54
2023/04/11 00:23:30;;;;;;;;;;;;;;;11.91;100.00;100644.06;5074816;28;19920;-54
2023/04/11 00:25:55;;;;;;;;;;;;;;;11.04;100.00;100658.25;5074335;28;19916;-54
2023/04/11 00:28:21;;;;;;;;;;;;;;;10.89;100.00;100668.31;5074498;28;19980;-53
2023/04/11 00:30:46;;;;;;;;;;;;;;;10.95;100.00;100667.50;5055385;28;19924;-53
2023/04/11 00:33:12;;;;;;;;;;;;;;;11.26;100.00;100660.75;5074501;28;19996;-54
2023/04/11 00:35:38;;;;;;;;;;;;;;;10.98;100.00;100667.09;5057004;28;19917;-53
2023/04/11 00:38:04;;;;;;;;;;;;;;;11.07;100.00;100661.56;5074441;28;19916;-51
2023/04/11 00:40:30;;;;;;;;;;;;;;;10.90;100.00;100664.63;5057131;28;19939;-52
2023/04/11 00:42:55;;;;;;;;;;;;;;;10.72;100.00;100674.03;5090584;28;19953;-54
2023/04/11 00:45:21;;;;;;;;;;;;;;;10.40;100.00;100675.50;5094639;28;19916;-55
2023/04/11 00:47:48;;;;;;;;;;;;;;;10.38;100.00;100670.38;5094342;28;19983;-53
2023/04/11 00:50:14;;;;;;;;;;;;;;;10.72;100.00;100679.38;5093453;28;19916;-55
2023/04/11 00:52:41;;;;;;;;;;;;;;;11.81;100.00;100667.78;5094400;28;19916;-53
2023/04/11 00:55:08;;;;;;;;;;;;;;;11.28;100.00;100688.16;5094361;28;19923;-52
2023/04/11 00:57:34;;;;;;;;;;;;;;;10.91;100.00;100671.63;5092246;28;19916;-54
2023/04/11 01:00:00;;;;;;;;;;;;;;;11.58;100.00;100668.19;5091982;28;19923;-56
2023/04/11 01:02:25;;;;;;;;;;;;;;;11.44;100.00;100673.56;5094237;28;19944;-51
2023/04/11 01:04:52;;;;;;;;;;;;;;;11.33;100.00;100676.84;5094122;28;19981;-53
2023/04/11 01:07:19;;;;;;;;;;;;;;;11.12;100.00;100681.34;5093949;28;19924;-54
2023/04/11 01:09:44;;;;;;;;;;;;;;;11.12;100.00;100678.66;5076439;28;19916;-54
2023/04/11 01:12:11;;;;;;;;;;;;;;;10.92;100.00;100675.09;5094266;28;19917;-57
2023/04/11 01:14:37;;;;;;;;;;;;;;;11.20;100.00;100669.63;5093958;28;19924;-52
2023/04/11 01:17:03;;;;;;;;;;;;;;;10.67;100.00;100679.16;5094116;28;19943;-55
2023/04/11 01:19:29;;;;;;;;;;;;;;;10.54;100.00;100682.59;5090539;28;19917;-56
2023/04/11 01:21:56;;;;;;;;;;;;;;;10.63;100.00;100674.41;5093125;28;19967;-55
2023/04/11 01:24:22;;;;;;;;;;;;;;;10.97;100.00;100678.84;5093987;28;19923;-56
2023/04/11 01:26:47;;;;;;;;;;;;;;;10.75;100.00;100681.66;5091277;28;19920;-52
2023/04/11 01:29:14;;;;;;;;;;;;;;;10.98;100.00;100672.47;5092796;28;19920;-56
2023/04/11 01:31:40;;;;;;;;;;;;;;;10.31;100.00;100672.16;5094099;28;19927;-52
2023/04/11 01:34:06;;;;;;;;;;;;;;;10.74;100.00;100665.81;5093996;28;19917;-57
2023/04/11 01:36:32;;;;;;;;;;;;;;;10.44;100.00;100674.94;5091319;28;19927;-54
2023/04/11 01:38:57;;;;;;;;;;;;;;;11.30;100.00;100686.13;5093522;28;19917;-55
2023/04/11 01:41:27;;;;;;;;;;;;;;;10.61;100.00;100678.09;5091709;28;19948;-54
2023/04/11 01:43:52;;;;;;;;;;;;;;;10.45;100.00;100678.44;5091246;28;19917;-54
2023/04/11 01:46:18;;;;;;;;;;;;;;;10.59;100.00;100684.66;5093753;28;19995;-57
2023/04/11 01:48:44;;;;;;;;;;;;;;;11.41;100.00;100687.34;5093761;28;19988;-54
2023/04/11 01:51:10;;;;;;;;;;;;;;;10.44;100.00;100682.97;5092162;28;19916;-54
2023/04/11 01:53:35;;;;;;;;;;;;;;;10.73;100.00;100686.38;5092543;28;19938;-56
2023/04/11 01:56:01;;;;;;;;;;;;;;;11.45;100.00;100685.09;5093532;28;19917;-54
2023/04/11 01:58:26;;;;;;;;;;;;;;;11.04;100.00;100686.88;5092746;28;19917;-56
2023/04/11 02:00:53;;;;;;;;;;;;;;;10.87;100.00;100694.47;5091614;28;19912;-56
2023/04/11 02:03:19;;;;;;;;;;;;;;;10.88;100.00;100693.44;5092760;28;19938;-54
2023/04/11 02:05:45;;;;;;;;;;;;;;;11.09;100.00;100699.66;5093444;28;19921;-55
2023/04/11 02:08:11;;;;;;;;;;;;;;;10.95;100.00;100688.91;5092434;28;19926;-53
2023/04/11 02:10:36;;;;;;;;;;;;;;;10.92;100.00;100704.53;5093300;28;19920;-55
2023/04/11 02:13:02;;;;;;;;;;;;;;;11.13;100.00;100709.75;5093600;28;19920;-52
2023/04/11 02:15:27;;;;;;;;;;;;;;;10.64;100.00;100708.97;5092535;28;19916;-55
2023/04/11 02:17:53;;;;;;;;;;;;;;;10.76;100.00;100707.38;5092597;28;19920;-55
2023/04/11 02:20:20;;;;;;;;;;;;;;;10.70;100.00;100702.84;5093175;28;19916;-55
2023/04/11 02:22:46;;;;;;;;;;;;;;;11.17;100.00;100707.50;5092658;28;19938;-55
2023/04/11 02:25:14;;;;;;;;;;;;;;;11.02;100.00;100710.34;5092405;28;19920;-57
2023/04/11 02:27:40;;;;;;;;;;;;;;;10.99;100.00;100705.41;5093206;28;19947;-53
2023/04/11 02:30:05;;;;;;;;;;;;;;;10.93;100.00;100716.88;5092926;28;19928;-54
2023/04/11 02:32:34;;;;;;;;;;;;;;;10.69;100.00;100711.88;5093617;28;19924;-52
2023/04/11 02:35:00;;;;;;;;;;;;;;;10.80;100.00;100713.16;5093249;28;19912;-56
2023/04/11 02:37:25;;;;;;;;;;;;;;;10.86;100.00;100711.53;5093305;28;19927;-56
2023/04/11 02:39:51;;;;;;;;;;;;;;;10.64;100.00;100705.47;5093320;28;19927;-54
2023/04/11 02:42:16;;;;;;;;;;;;;;;10.41;100.00;100709.28;5089510;28;19920;-52
2023/04/11 02:44:42;;;;;;;;;;;;;;;10.59;100.00;100720.25;5092586;28;19976;-54
2023/04/11 02:47:08;;;;;;;;;;;;;;;10.57;100.00;100716.13;5092239;28;19920;-54
2023/04/11 02:49:34;;;;;;;;;;;;;;;10.67;100.00;100713.94;5095324;28;19916;-55
2023/04/11 02:52:02;;;;;;;;;;;;;;;11.04;100.00;100710.97;5092716;28;19983;-55
2023/04/11 02:54:28;;;;;;;;;;;;;;;11.29;100.00;100719.25;5095731;28;19952;-55
2023/04/11 02:56:56;;;;;;;;;;;;;;;10.96;100.00;100714.66;5095525;28;19981;-55
2023/04/11 02:59:21;;;;;;;;;;;;;;;10.86;100.00;100725.72;5093929;28;19917;-53
2023/04/11 03:01:47;;;;;;;;;;;;;;;10.74;100.00;100719.31;5095241;28;19928;-54
2023/04/11 03:04:13;;;;;;;;;;;;;;;10.51;100.00;100728.47;5092322;28;19921;-54
2023/04/11 03:06:51;;;;;;;;;;;;;;;10.99;100.00;100724.94;5093762;28;19927;-54
2023/04/11 03:09:16;;;;;;;;;;;;;;;10.96;100.00;100730.69;5096137;28;19920;-52
2023/04/11 03:11:42;;;;;;;;;;;;;;;10.53;100.00;100730.91;5095461;28;19923;-56
2023/04/11 03:14:08;;;;;;;;;;;;;;;10.63;100.00;100730.56;5095367;28;19927;-55
2023/04/11 03:16:33;;;;;;;;;;;;;;;10.51;100.00;100728.47;5095588;28;19954;-52
2023/04/11 03:18:59;;;;;;;;;;;;;;;11.29;100.00;100732.63;5095423;28;19916;-55
2023/04/11 03:21:25;;;;;;;;;;;;;;;11.12;100.00;100737.53;5076608;28;19939;-55
2023/04/11 03:23:50;;;;;;;;;;;;;;;10.90;100.00;100737.66;5095460;28;19917;-52
2023/04/11 03:26:17;;;;;;;;;;;;;;;10.90;100.00;100739.53;5094856;28;19927;-54
2023/04/11 03:28:44;;;;;;;;;;;;;;;11.05;100.00;100744.72;5095138;28;19920;-56
2023/04/11 03:31:10;;;;;;;;;;;;;;;11.23;100.00;100749.50;5095816;28;19923;-56
2023/04/11 03:33:36;;;;;;;;;;;;;;;11.12;100.00;100742.91;5092595;28;19916;-55
2023/04/11 03:36:02;;;;;;;;;;;;;;;10.93;100.00;100747.16;5094652;28;19920;-53
2023/04/11 03:38:28;;;;;;;;;;;;;;;11.26;100.00;100759.81;5092535;28;19916;-51
2023/04/11 03:40:54;;;;;;;;;;;;;;;11.25;100.00;100758.16;5094664;28;19923;-56
2023/04/11 03:43:24;;;;;;;;;;;;;;;11.30;100.00;100760.25;5094790;28;19921;-55
2023/04/11 03:45:50;;;;;;;;;;;;;;;11.49;100.00;100761.31;5094879;28;19920;-55
2023/04/11 03:48:28;;;;;;;;;;;;;;;11.55;100.00;100760.50;5093998;28;19944;-55
2023/04/11 03:50:58;;;;;;;;;;;;;;;11.55;100.00;100760.50;5094625;28;19917;-53
2023/04/11 03:53:32;;;;;;;;;;;;;;;11.54;100.00;100776.78;5095087;28;19924;-55
2023/04/11 03:56:04;;;;;;;;;;;;;;;11.57;100.00;100776.38;5090673;28;19916;-54
2023/04/11 03:58:35;;;;;;;;;;;;;;;11.60;100.00;100771.44;5094321;28;19920;-54
2023/04/11 04:01:01;;;;;;;;;;;;;;;11.06;100.00;100775.81;5091540;28;19928;-53
2023/04/11 04:03:27;;;;;;;;;;;;;;;9.90;100.00;100784.13;5094778;28;19927;-54
2023/04/11 04:05:53;;;;;;;;;;;;;;;11.10;100.00;100786.97;5092545;28;19921;-51
2023/04/11 04:08:20;;;;;;;;;;;;;;;10.68;100.00;100778.94;5094328;28;19924;-52
2023/04/11 04:10:47;;;;;;;;;;;;;;;10.62;100.00;100780.56;5093964;28;19916;-55
2023/04/11 04:13:14;;;;;;;;;;;;;;;10.58;100.00;100785.47;5094309;28;19917;-54
2023/04/11 04:15:50;;;;;;;;;;;;;;;10.75;100.00;100787.84;5094213;28;19923;-55
2023/04/11 04:18:19;;;;;;;;;;;;;;;10.68;100.00;100789.63;5094222;28;19916;-53
2023/04/11 04:20:46;;;;;;;;;;;;;;;10.88;100.00;100795.09;5094199;28;19974;-54
2023/04/11 04:23:12;;;;;;;;;;;;;;;10.83;100.00;100810.91;5094739;28;19925;-52
2023/04/11 04:25:56;;;;;;;;;;;;;;;10.52;100.00;100802.31;5094336;28;19916;-52
2023/04/11 04:28:26;;;;;;;;;;;;;;;10.53;100.00;100814.66;5092926;28;19939;-53
2023/04/11 04:30:56;;;;;;;;;;;;;;;10.42;100.00;100801.81;5092754;28;19916;-54
2023/04/11 04:33:24;;;;;;;;;;;;;;;10.48;100.00;100814.41;5090135;28;19923;-54
2023/04/11 04:35:56;;;;;;;;;;;;;;;10.64;100.00;100815.97;5093746;28;19923;-50
2023/04/11 04:38:27;;;;;;;;;;;;;;;10.37;100.00;100810.38;5093789;28;19905;-53
2023/04/11 04:40:54;;;;;;;;;;;;;;;10.46;100.00;100813.75;5092668;28;19916;-54
2023/04/11 04:43:21;;;;;;;;;;;;;;;10.93;100.00;100821.25;5077289;28;19955;-52
2023/04/11 04:45:53;;;;;;;;;;;;;;;10.55;100.00;100825.13;5093553;28;19968;-54
2023/04/11 04:48:24;;;;;;;;;;;;;;;10.85;100.00;100814.22;5092960;28;19920;-54
2023/04/11 04:50:51;;;;;;;;;;;;;;;11.01;100.00;100829.94;5094432;28;19917;-54
2023/04/11 04:53:17;;;;;;;;;;;;;;;11.21;100.00;100825.72;5092983;28;19917;-54
2023/04/11 04:55:51;;;;;;;;;;;;;;;10.42;100.00;100832.06;5092973;28;19948;-54
2023/04/11 04:58:18;;;;;;;;;;;;;;;9.69;100.00;100837.56;5093621;28;19923;-52
2023/04/11 05:00:45;;;;;;;;;;;;;;;10.23;100.00;100833.50;5092818;28;19916;-53
2023/04/11 05:03:19;;;;;;;;;;;;;;;10.54;100.00;100845.72;5093424;28;19920;-53
2023/04/11 05:05:47;;;;;;;;;;;;;;;9.92;100.00;100850.72;5092506;28;19916;-51
2023/04/11 05:08:14;;;;;;;;;;;;;;;9.56;100.00;100856.91;5091524;28;19927;-55
2023/04/11 05:10:40;;;;;;;;;;;;;;;9.95;100.00;100857.53;5093209;28;19984;-54
2023/04/11 05:13:07;;;;;;;;;;;;;;;10.04;100.00;100853.72;5091573;28;19927;-53
2023/04/11 05:15:34;;;;;;;;;;;;;;;10.24;100.00;100858.41;5093350;28;19952;-53
2023/04/11 05:17:59;;;;;;;;;;;;;;;9.99;100.00;100872.97;5091621;28;19917;-53
2023/04/11 05:20:25;;;;;;;;;;;;;;;10.02;100.00;100866.44;5090967;28;19920;-54
2023/04/11 05:22:52;;;;;;;;;;;;;;;10.42;100.00;100868.66;5093132;28;19916;-50
2023/04/11 05:25:19;;;;;;;;;;;;;;;9.96;100.00;100875.22;5091855;28;19920;-53
2023/04/11 05:27:46;;;;;;;;;;;;;;;10.40;100.00;100868.88;5093899;28;19932;-55
2023/04/11 05:30:12;;;;;;;;;;;;;;;9.90;100.00;100877.59;5091900;28;19924;-56
2023/04/11 05:32:38;;;;;;;;;;;;;;;10.29;100.00;100877.34;5090979;28;19923;-54
2023/04/11 05:35:05;;;;;;;;;;;;;;;10.35;100.00;100886.47;5093066;28;20590;-53
2023/04/11 05:37:59;;;;;;;;;;;;;;;10.33;100.00;100895.50;5088114;28;19924;-54
2023/04/11 05:40:24;;;;;;;;;;;;;;;10.25;100.00;100900.16;5093441;28;19920;-53
2023/04/11 05:42:50;;;;;;;;;;;;;;;10.36;100.00;100891.59;5092702;28;19924;-54
2023/04/11 05:45:15;;;;;;;;;;;;;;;10.07;100.00;100901.41;5092789;28;19978;-55
2023/04/11 05:47:41;;;;;;;;;;;;;;;10.07;100.00;100897.94;5093394;28;19928;-49
2023/04/11 05:50:07;;;;;;;;;;;;;;;10.47;100.00;100901.81;5093902;28;19956;-51
2023/04/11 05:52:32;;;;;;;;;;;;;;;10.40;100.00;100910.75;5092809;28;19916;-50
2023/04/11 05:54:58;;;;;;;;;;;;;;;10.32;100.00;100901.88;5093725;28;19928;-53
2023/04/11 05:57:23;;;;;;;;;;;;;;;10.23;100.00;100915.56;5093479;28;19916;-51
2023/04/11 05:59:48;;;;;;;;;;;;;;;10.22;100.00;100920.06;5093303;28;19920;-54
2023/04/11 06:02:15;;;;;;;;;;;;;;;10.27;100.00;100911.47;5093012;28;19923;-54
2023/04/11 06:04:40;;;;;;;;;;;;;;;10.27;100.00;100912.31;5093356;28;19924;-51
2023/04/11 06:07:07;;;;;;;;;;;;;;;10.44;100.00;100920.91;5093463;28;19912;-51
2023/04/11 06:09:32;;;;;;;;;;;;;;;10.49;100.00;100911.50;5091372;28;19921;-56
2023/04/11 06:11:58;;;;;;;;;;;;;;;10.38;100.00;100923.50;5091192;28;19924;-51
2023/04/11 06:14:23;;;;;;;;;;;;;;;10.40;100.00;100927.69;5093452;28;19916;-55
2023/04/11 06:16:49;;;;;;;;;;;;;;;10.32;100.00;100936.63;5093072;28;19917;-52
2023/04/11 06:19:14;;;;;;;;;;;;;;;10.21;100.00;100931.78;5093038;28;19992;-54
2023/04/11 06:21:40;;;;;;;;;;;;;;;10.46;100.00;100942.09;5092722;28;19917;-51
2023/04/11 06:24:09;;;;;;;;;;;;;;;10.37;100.00;100936.03;5095045;28;19931;-54
2023/04/11 06:26:35;;;;;;;;;;;;;;;10.64;100.00;100932.78;5096851;28;19916;-53
2023/04/11 06:29:04;;;;;;;;;;;;;;;10.56;100.00;100953.31;5094532;28;19921;-54
2023/04/11 06:31:29;;;;;;;;;;;;;;;10.52;100.00;100956.56;5099502;28;19916;-55
2023/04/11 06:33:55;;;;;;;;;;;;;;;11.05;100.00;100951.63;5096565;28;19931;-52
2023/04/11 06:36:21;;;;;;;;;;;;;;;10.68;100.00;100956.28;5096582;28;19928;-54
2023/04/11 06:38:46;;;;;;;;;;;;;;;10.70;100.00;100954.25;5096701;28;19984;-53
2023/04/11 06:41:12;;;;;;;;;;;;;;;11.26;100.00;100955.25;5094049;28;19916;-51
2023/04/11 06:43:38;;;;;;;;;;;;;;;11.32;100.00;100957.16;5076458;28;19947;-56
2023/04/11 06:46:03;;;;;;;;;;;;;;;11.40;100.00;100958.00;5076345;28;19924;-53
2023/04/11 06:48:28;;;;;;;;;;;;;;;10.90;100.00;100973.13;5076059;28;19975;-54
2023/04/11 06:50:54;;;;;;;;;;;;;;;11.01;100.00;100971.75;5075840;28;19916;-54
2023/04/11 06:53:19;;;;;;;;;;;;;;;11.40;100.00;100974.06;5057050;28;19916;-53
2023/04/11 06:55:48;;;;;;;;;;;;;;;11.24;100.00;100981.38;5077688;28;20000;-52
2023/04/11 06:58:13;;;;;;;;;;;;;;;11.46;100.00;100970.59;5073816;28;19940;-54
2023/04/11 07:00:38;;;;;;;;;;;;;;;11.43;100.00;100973.69;5075809;28;19916;-53
2023/04/11 07:03:07;;;;;;;;;;;;;;;11.42;100.00;100961.31;5075939;28;19928;-53
2023/04/11 07:05:32;;;;;;;;;;;;;;;11.30;100.00;100971.75;5074879;28;19940;-52
2023/04/11 07:07:58;;;;;;;;;;;;;;;12.01;100.00;100981.38;5075840;28;19944;-52
2023/04/11 07:10:24;;;;;;;;;;;;;;;11.68;100.00;100979.38;5073674;28;19917;-53
2023/04/11 07:12:49;;;;;;;;;;;;;;;11.58;100.00;100978.91;5073865;28;19976;-53
2023/04/11 07:15:15;;;;;;;;;;;;;;;11.36;100.00;100978.19;5074916;28;19924;-53
2023/04/11 07:17:40;;;;;;;;;;;;;;;10.73;100.00;100993.19;5074111;28;19939;-54
2023/04/11 07:20:10;;;;;;;;;;;;;;;11.14;100.00;100991.63;5075502;28;20019;-50
2023/04/11 07:22:38;;;;;;;;;;;;;;;11.04;100.00;100990.09;5075918;28;19943;-51
2023/04/11 07:25:04;;;;;;;;;;;;;;;12.16;100.00;100991.13;5075060;28;19917;-52
2023/04/11 07:27:31;;;;;;;;;;;;;;;11.87;100.00;100983.16;5075492;28;19938;-53
2023/04/11 07:29:57;;;;;;;;;;;;;;;11.81;100.00;100997.34;5075070;28;19916;-55
2023/04/11 07:32:23;;;;;;;;;;;;;;;11.52;100.00;100996.56;5075287;28;19951;-54
2023/04/11 07:34:49;;;;;;;;;;;;;;;12.03;100.00;100998.06;5074403;28;19989;-51
2023/04/11 07:37:15;;;;;;;;;;;;;;;12.34;100.00;101009.31;5075037;28;19927;-56
2023/04/11 07:39:41;;;;;;;;;;;;;;;12.36;100.00;101004.56;5075311;28;19921;-55
2023/04/11 07:42:06;;;;;;;;;;;;;;;12.48;100.00;100994.91;5084571;28;19960;-53
2023/04/11 07:44:32;;;;;;;;;;;;;;;12.58;100.00;101012.44;5095511;28;19944;-54
2023/04/11 07:46:57;;;;;;;;;;;;;;;12.78;100.00;101020.50;5095503;28;19938;-55
2023/04/11 07:49:23;;;;;;;;;;;;;;;12.24;100.00;101011.56;5095510;28;19946;-55
2023/04/11 07:51:48;;;;;;;;;;;;;;;11.48;100.00;101019.44;5088747;28;19925;-52
2023/04/11 07:54:13;;;;;;;;;;;;;;;12.84;100.00;101017.00;5092773;28;19951;-52
2023/04/11 07:56:39;;;;;;;;;;;;;;;12.83;100.00;101023.41;5095240;28;20292;-50
2023/04/11 07:59:05;;;;;;;;;;;;;;;13.50;100.00;101011.78;5094818;28;19983;-54
2023/04/11 08:01:30;;;;;;;;;;;;;;;13.22;100.00;101023.59;5094917;28;19948;-55
2023/04/11 08:03:56;;;;;;;;;;;;;;;13.56;100.00;101010.13;5095234;28;20015;-56
2023/04/11 08:06:21;;;;;;;;;;;;;;;13.34;100.00;101019.22;5092025;28;19916;-54
2023/04/11 08:08:47;;;;;;;;;;;;;;;13.20;100.00;101031.03;5094847;28;19927;-57
2023/04/11 08:11:13;;;;;;;;;;;;;;;13.64;100.00;101022.50;5093642;28;19924;-55
2023/04/11 08:13:38;;;;;;;;;;;;;;;12.98;100.00;101038.47;5094678;28;19920;-54
2023/04/11 08:16:08;;;;;;;;;;;;;;;12.62;100.00;101035.13;5094724;28;19951;-55
2023/04/11 08:18:34;;;;;;;;;;;;;;;12.43;100.00;101040.25;5094872;28;19916;-56
2023/04/11 08:21:00;;;;;;;;;;;;;;;12.70;100.00;101051.06;5094709;28;19924;-57
2023/04/11 08:23:25;;;;;;;;;;;;;;;12.24;100.00;101043.72;5094442;28;20152;-54
2023/04/11 08:25:51;;;;;;;;;;;;;;;12.85;100.00;101052.72;5094428;28;19916;-50
2023/04/11 08:28:16;;;;;;;;;;;;;;;12.42;100.00;101057.38;5094310;28;19920;-54
2023/04/11 08:30:41;;;;;;;;;;;;;;;12.25;100.00;101053.44;5092808;28;19917;-51
2023/04/11 08:33:08;;;;;;;;;;;;;;;12.83;100.00;101052.09;5094498;28;19922;-52
2023/04/11 08:35:34;;;;;;;;;;;;;;;12.19;100.00;101055.88;5094275;28;19916;-53
2023/04/11 08:37:59;;;;;;;;;;;;;;;12.89;100.00;101062.00;5094187;28;19984;-52
2023/04/11 08:40:25;;;;;;;;;;;;;;;13.24;100.00;101063.66;5094185;28;20221;-54
2023/04/11 08:42:56;;;;;;;;;;;;;;;14.33;100.00;101061.31;5093149;28;19932;-54
2023/04/11 08:45:22;;;;;;;;;;;;;;;14.69;100.00;101066.28;5094431;28;19916;-56
2023/04/11 08:47:48;;;;;;;;;;;;;;;13.99;100.00;101081.31;5092573;28;19927;-52
2023/04/11 08:50:14;;;;;;;;;;;;;;;13.91;100.00;101075.16;5093822;28;19916;-55
2023/04/11 08:52:41;;;;;;;;;;;;;;;14.19;100.00;101092.00;5093994;28;19939;-55
2023/04/11 08:55:07;;;;;;;;;;;;;;;14.39;100.00;101081.16;5093829;28;19959;-55
2023/04/11 08:57:33;;;;;;;;;;;;;;;13.93;100.00;101079.47;5093575;28;19916;-55
2023/04/11 09:00:35;;;;;;;;;;;;;;;13.99;100.00;101089.38;5094098;28;19923;-52
2023/04/11 09:02:54;;;;;;;;;;;;;;;14.02;100.00;101075.50;5092514;28;19916;-56
2023/04/11 09:05:23;;;;;;;;;;;;;;;14.08;100.00;101082.75;5093739;28;19992;-57
2023/04/11 09:07:49;;;;;;;;;;;;;;;14.25;100.00;101085.78;5093793;28;19935;-53
2023/04/11 09:10:18;;;;;;;;;;;;;;;14.68;100.00;101089.69;5093328;28;19917;-53
2023/04/11 09:12:44;;;;;;;;;;;;;;;14.77;100.00;101084.91;5093347;28;19920;-53
2023/04/11 09:15:22;;;;;;;;;;;;;;;15.18;100.00;101091.63;5093288;28;19923;-55
2023/04/11 09:17:48;;;;;;;;;;;;;;;15.13;100.00;101086.09;5091275;28;19923;-52
2023/04/11 09:20:17;;;;;;;;;;;;;;;15.24;98.69;101087.25;5092468;28;19916;-55
2023/04/11 09:22:42;;;;;;;;;;;;;;;15.46;97.83;101081.44;5093835;28;19952;-53
2023/04/11 09:25:08;;;;;;;;;;;;;;;15.88;93.90;101119.41;5092018;28;19924;-55
2023/04/11 09:27:33;;;;;;;;;;;;;;;16.05;94.28;101094.53;5093773;28;19916;-54
2023/04/11 09:30:00;;;;;;;;;;;;;;;15.88;95.81;101103.22;5092547;28;19927;-55
2023/04/11 09:32:27;;;;;;;;;;;;;;;16.92;91.66;101111.44;5088172;28;19917;-55
2023/04/11 09:35:14;;;;;;;;;;;;;;;17.84;88.54;101111.97;5093575;28;19938;-50
2023/04/11 09:37:43;;;;;;;;;;;;;;;18.93;83.59;101105.94;5091649;28;19912;-55
2023/04/11 09:40:09;;;;;;;;;;;;;;;18.65;77.36;101123.88;5093571;28;19936;-59
2023/04/11 09:42:34;;;;;;;;;;;;;;;17.47;75.97;101128.44;5093449;28;19995;-55
2023/04/11 09:45:00;;;;;;;;;;;;;;;17.76;72.88;101125.84;5093488;28;19943;-55
2023/04/11 09:47:31;;;;;;;;;;;;;;;17.85;71.41;101116.31;5092825;28;19920;-55
2023/04/11 09:49:57;;;;;;;;;;;;;;;18.68;69.93;101107.13;5091346;28;19920;-55
2023/04/11 09:52:23;;;;;;;;;;;;;;;19.45;67.78;101123.06;5092757;28;19993;-53
2023/04/11 09:54:49;;;;;;;;;;;;;;;18.75;63.51;101137.63;5093486;28;19916;-54
2023/04/11 09:57:16;;;;;;;;;;;;;;;19.85;63.86;101126.59;5091406;28;19917;-55
2023/04/11 09:59:42;;;;;;;;;;;;;;;19.32;62.31;101127.75;5096938;28;19916;-55
2023/04/11 10:02:08;;;;;;;;;;;;;;;19.97;62.07;101112.94;5095904;28;19921;-55
2023/04/11 10:04:33;;;;;;;;;;;;;;;19.67;61.23;101111.44;5095623;28;19924;-54
2023/04/11 10:07:04;;;;;;;;;;;;;;;18.97;59.78;101125.25;5096910;28;19939;-51
2023/04/11 10:09:31;;;;;;;;;;;;;;;19.50;59.01;101120.41;5095190;28;19921;-53
2023/04/11 10:11:56;;;;;;;;;;;;;;;19.54;54.50;101129.69;5095291;28;19921;-54
2023/04/11 10:14:37;;;;;;;;;;;;;;;20.05;55.79;101142.34;5097193;28;19994;-56
2023/04/11 10:17:32;;;;;;;;;;;;;;;21.25;52.71;101164.28;5096725;28;19916;-55
2023/04/11 10:19:58;;;;;;;;;;;;;;;20.29;50.26;101136.66;5082205;28;19924;-53
2023/04/11 10:22:42;;;;;;;;;;;;;;;20.12;50.99;101131.31;5095772;28;19921;-56
2023/04/11 10:25:17;;;;;;;;;;;;;;;21.68;50.11;101139.00;5095728;28;19966;-58
2023/04/11 10:27:49;;;;;;;;;;;;;;;20.48;52.36;101139.88;5094466;28;19921;-53
2023/04/11 10:30:15;;;;;;;;;;;;;;;20.85;50.98;101149.25;5096680;28;19985;-53
2023/04/11 10:32:40;;;;;;;;;;;;;;;20.70;47.68;101141.75;5095458;28;19908;-55
2023/04/11 10:35:09;;;;;;;;;;;;;;;21.10;48.85;101140.47;5096811;28;19921;-56
2023/04/11 10:37:35;;;;;;;;;;;;;;;22.27;46.97;101146.13;5096371;28;19950;-52
2023/04/11 10:40:07;;;;;;;;;;;;;;;22.59;46.80;101157.94;5096798;28;19925;-54
2023/04/11 10:42:43;;;;;;;;;;;;;;;20.24;48.04;101118.44;5084260;28;19920;-52
2023/04/11 10:45:23;;;;;;;;;;;;;;;21.08;48.32;101137.22;5078624;28;19923;-57
2023/04/11 10:47:55;;;;;;;;;;;;;;;21.29;47.57;101137.38;5076776;28;19904;-54
2023/04/11 10:50:26;;;;;;;;;;;;;;;22.00;47.20;101138.91;5071950;28;19927;-58
2023/04/11 10:52:51;;;;;;;;;;;;;;;22.12;46.88;101135.16;5075422;28;19927;-51
2023/04/11 10:55:18;;;;;;;;;;;;;;;23.39;45.95;101144.94;5072536;28;19917;-56
2023/04/11 10:58:04;;;;;;;;;;;;;;;22.78;44.56;101145.44;5072838;28;19916;-54
2023/04/11 11:00:50;;;;;;;;;;;;;;;22.38;44.21;101155.16;5072280;28;19917;-57
2023/04/11 11:03:16;;;;;;;;;;;;;;;23.21;43.19;101163.47;5073526;28;19916;-56
2023/04/11 11:05:41;;;;;;;;;;;;;;;22.73;44.46;101153.63;5074458;28;19928;-58
2023/04/11 11:08:07;;;;;;;;;;;;;;;22.49;44.36;101159.56;5057087;28;19920;-57
2023/04/11 11:10:36;;;;;;;;;;;;;;;22.42;45.06;101152.69;5074500;28;19927;-56
2023/04/11 11:13:02;;;;;;;;;;;;;;;23.55;44.72;101162.94;5074588;28;19921;-57
2023/04/11 11:15:29;;;;;;;;;;;;;;;23.92;44.73;101160.94;5073649;28;19972;-56
2023/04/11 11:17:54;;;;;;;;;;;;;;;24.46;42.31;101173.03;5074391;28;19921;-54
2023/04/11 11:20:19;;;;;;;;;;;;;;;24.52;41.91;101167.53;5078989;28;19920;-56
2023/04/11 11:22:58;;;;;;;;;;;;;;;23.03;43.00;101171.09;5077327;28;19976;-55
2023/04/11 11:25:24;;;;;;;;;;;;;;;22.55;43.64;101175.91;5078705;28;19916;-54
2023/04/11 11:28:00;;;;;;;;;;;;;;;20.86;43.96;101173.44;5078375;28;19931;-56
2023/04/11 11:30:26;;;;;;;;;;;;;;;21.10;45.53;101166.88;5073784;28;19920;-57
2023/04/11 11:32:51;;;;;;;;;;;;;;;21.78;44.00;101180.72;5074963;28;19916;-55
2023/04/11 11:35:17;;;;;;;;;;;;;;;20.92;44.78;101169.72;5078932;28;19916;-59
2023/04/11 11:37:42;;;;;;;;;;;;;;;20.74;44.91;101170.84;5075833;28;19931;-53
2023/04/11 11:40:11;;;;;;;;;;;;;;;21.34;42.57;101175.53;5075647;28;19917;-56
2023/04/11 11:42:38;;;;;;;;;;;;;;;21.79;43.38;101173.41;5011942;28;1721628;-59
2023/04/11 11:45:12;;;;;;;;;;;;;;;22.52;44.33;101171.00;5075131;28;19920;-57
2023/04/11 11:47:42;;;;;;;;;;;;;;;22.67;42.85;101176.50;5074829;28;19916;-56
2023/04/11 11:50:07;;;;;;;;;;;;;;;21.08;43.93;101171.75;5074963;28;19939;-60
2023/04/11 11:52:33;;;;;;;;;;;;;;;22.80;43.75;101172.44;5075016;28;19987;-57
2023/04/11 11:55:04;;;;;;;;;;;;;;;22.76;42.65;101174.88;5075055;28;19927;-59
2023/04/11 11:57:30;;;;;;;;;;;;;;;22.45;43.99;101173.94;5074830;28;19927;-58
2023/04/11 11:59:56;;;;;;;;;;;;;;;23.61;43.61;101183.66;5073708;28;19921;-55
2023/04/11 12:02:22;;;;;;;;;;;;;;;22.68;41.20;101191.78;5074976;28;19917;-57
2023/04/11 12:04:48;;;;;;;;;;;;;;;22.27;41.06;101189.72;5075101;28;19944;-55
2023/04/11 12:07:19;;;;;;;;;;;;;;;21.46;39.72;101207.97;5074701;28;19917;-57
2023/04/11 12:09:46;;;;;;;;;;;;;;;20.33;40.37;101187.50;5072638;28;19921;-57
2023/04/11 12:12:13;;;;;;;;;;;;;;;21.38;39.13;101200.28;5076239;28;19944;-58
2023/04/11 12:14:39;;;;;;;;;;;;;;;21.17;41.87;101189.22;5074685;28;19924;-55
2023/04/11 12:17:07;;;;;;;;;;;;;;;22.94;40.21;101193.72;5074369;28;19956;-55
2023/04/11 12:19:33;;;;;;;;;;;;;;;23.75;40.35;101188.53;5075967;28;19916;-58
2023/04/11 12:21:58;;;;;;;;;;;;;;;21.34;42.21;101200.00;5073569;28;19940;-52
2023/04/11 12:24:23;;;;;;;;;;;;;;;21.88;41.61;101193.56;5074285;28;19973;-56
2023/04/11 12:26:48;;;;;;;;;;;;;;;22.43;42.41;101195.19;5074547;28;19916;-57
2023/04/11 12:29:14;;;;;;;;;;;;;;;22.61;41.68;101188.50;5077491;28;19928;-59
2023/04/11 12:31:39;;;;;;;;;;;;;;;22.89;42.64;101192.63;5073978;28;19920;-57